Afton, New York
Current Conditions -  °F | °C
As of 7:53 PM on Monday 22 Dec 2014 (Local Time) from KBGM Reporting Station
Haze Haze  
Wind Chill: 26°   Ceiling: 500
Heat Index: 33°   Visibility: 5mi
Dew Point: 32°   Wind: 8mph
Humidity: 96%   Direction: 150°SSE
Pressure: 30.12"   Gusts: NA
Location:  42.23°N, 75.53°W
Report Text: KBGM 230053Z 15007KT 5SM BR OVC005 01/00 A3012 RMK AO2 SLP218 T00060000
Loading
Personal Weather Stations






























Interactive Weather Map New forecast layout! Learn more

10-Day Weather Forecast

Advertisements
Track Severe Weather on mobile